Time;durP1;ratioP1;P1;durP2;ratioP2;P2;SDS_P1;SDS_P2;PMS_P1;PMS_P2;Temp;Humidity;BMP_temperature;BMP_pressure;BME280_temperature;BME280_humidity;BME280_pressure;Samples;Min_cycle;Max_cycle;Signal;HPM_P1;HPM_P2
2022/07/02 00:05:26;;;;;;;14.47;12.60;;;;;;;20.40;83.54;99405.44;4139967;83;21662;-85
2022/07/02 00:11:28;;;;;;;16.65;13.90;;;;;;;20.33;83.85;99415.31;4133833;84;21535;-85
2022/07/02 00:17:29;;;;;;;15.53;14.05;;;;;;;20.09;84.10;99380.47;4145432;84;21114;-84
2022/07/02 00:23:30;;;;;;;13.90;12.55;;;;;;;20.04;84.39;99383.16;4133168;84;21457;-89
2022/07/02 00:30:00;;;;;;;16.90;12.50;;;;;;;19.94;84.55;99388.31;4144733;84;21486;-84
2022/07/02 00:36:26;;;;;;;14.03;12.25;;;;;;;19.84;84.41;99414.92;4139367;84;21025;-84
2022/07/02 00:43:24;;;;;;;12.20;10.90;;;;;;;19.76;84.70;99387.10;4097011;87;20991;-83
2022/07/02 00:56:55;;;;;;;16.85;12.47;;;;;;;19.52;84.36;99369.70;4055361;88;21006;-84
2022/07/02 01:03:22;;;;;;;12.13;10.82;;;;;;;19.35;84.40;99341.67;4070787;87;21510;-83
2022/07/02 01:15:44;;;;;;;12.37;9.33;;;;;;;19.17;85.15;99305.09;4294630;81;21663;-85
2022/07/02 01:22:14;;;;;;;12.98;10.60;;;;;;;19.30;85.73;99329.67;4297782;81;21061;-84
2022/07/02 01:28:15;;;;;;;14.73;10.38;;;;;;;19.35;85.43;99336.13;4281003;81;21021;-87
2022/07/02 01:34:31;;;;;;;11.50;9.58;;;;;;;19.38;85.79;99359.46;4299808;81;21048;-84
2022/07/02 01:40:32;;;;;;;12.75;9.03;;;;;;;19.40;85.82;99368.95;4224382;82;21050;-84
2022/07/02 01:46:35;;;;;;;10.40;8.08;;;;;;;19.40;85.79;99369.55;4230997;82;21072;-85
2022/07/02 01:52:36;;;;;;;9.93;8.20;;;;;;;19.37;85.75;99365.61;4218919;82;21023;-84
2022/07/02 01:58:37;;;;;;;11.28;8.83;;;;;;;19.28;85.65;99375.09;4225049;82;21539;-84
2022/07/02 02:04:39;;;;;;;9.05;8.18;;;;;;;19.18;85.81;99384.38;4235821;82;21536;-85
2022/07/02 02:10:40;;;;;;;11.93;8.93;;;;;;;19.10;86.08;99374.61;4227364;82;21106;-84
2022/07/02 02:16:42;;;;;;;11.80;9.40;;;;;;;19.04;86.40;99381.85;4141337;84;20965;-85
2022/07/02 02:22:43;;;;;;;9.78;8.88;;;;;;;19.08;86.53;99406.14;4149747;83;21083;-84
2022/07/02 02:35:26;;;;;;;14.60;11.75;;;;;;;19.01;86.73;99429.07;4245349;82;21005;-84
2022/07/02 02:41:27;;;;;;;14.60;11.45;;;;;;;18.94;86.53;99450.77;4242896;82;21078;-85
2022/07/02 02:47:28;;;;;;;15.38;11.80;;;;;;;18.91;87.01;99455.77;4241646;82;22394;-84
2022/07/02 02:53:30;;;;;;;14.85;12.90;;;;;;;18.87;86.98;99461.19;4245548;82;21007;-85
2022/07/02 02:59:31;;;;;;;12.98;11.25;;;;;;;18.85;86.93;99456.06;4251584;82;26279;-85
2022/07/02 03:05:32;;;;;;;13.83;12.37;;;;;;;18.73;87.17;99450.48;4198100;83;21643;-84
2022/07/02 03:11:34;;;;;;;14.78;13.10;;;;;;;18.71;87.25;99467.36;4192651;83;21038;-84
2022/07/02 03:17:36;;;;;;;15.35;12.58;;;;;;;18.65;87.42;99471.19;4163506;84;21045;-84
2022/07/02 03:23:37;;;;;;;15.93;12.13;;;;;;;18.64;87.61;99464.08;4161726;84;21587;-85
2022/07/02 03:29:38;;;;;;;14.58;12.85;;;;;;;18.70;87.87;99464.39;4157687;84;21084;-84
2022/07/02 03:35:40;;;;;;;16.62;13.72;;;;;;;18.63;87.66;99481.93;4157554;84;21005;-86
2022/07/02 03:41:41;;;;;;;13.72;12.25;;;;;;;18.55;87.86;99507.38;4157571;84;21029;-85
2022/07/02 03:47:42;;;;;;;14.25;12.85;;;;;;;18.55;88.05;99515.11;4162001;84;21972;-85
2022/07/02 03:53:44;;;;;;;15.65;12.73;;;;;;;18.43;88.02;99523.19;4167781;83;21085;-85
2022/07/02 03:59:45;;;;;;;14.23;12.73;;;;;;;18.40;88.23;99544.80;4170363;84;21973;-85
2022/07/02 04:05:46;;;;;;;13.18;11.78;;;;;;;18.36;88.13;99539.85;4161459;84;21128;-86
2022/07/02 04:11:48;;;;;;;13.08;11.88;;;;;;;18.40;88.56;99547.58;4166795;84;21557;-86
2022/07/02 04:17:49;;;;;;;13.70;12.35;;;;;;;18.43;88.89;99544.73;4140629;84;21087;-86
2022/07/02 04:23:51;;;;;;;17.65;15.83;;;;;;;18.46;88.91;99555.62;4157967;84;20996;-85
2022/07/02 04:29:52;;;;;;;16.87;15.13;;;;;;;18.39;88.88;99557.87;4155172;84;21142;-84
2022/07/02 04:35:53;;;;;;;17.40;14.93;;;;;;;18.25;88.88;99553.05;4158768;84;21021;-83
2022/07/02 04:41:55;;;;;;;17.10;14.35;;;;;;;18.17;89.47;99555.11;4162168;84;20997;-85
2022/07/02 04:47:56;;;;;;;16.25;14.58;;;;;;;18.13;89.91;99561.30;4162817;84;22168;-85
2022/07/02 04:53:58;;;;;;;16.52;14.80;;;;;;;18.15;89.90;99562.27;4171331;84;21004;-85
2022/07/02 04:59:59;;;;;;;17.57;15.78;;;;;;;18.06;90.21;99571.05;4159053;84;21606;-84
2022/07/02 05:06:00;;;;;;;18.30;15.70;;;;;;;17.97;90.25;99569.95;4157424;84;21045;-84
2022/07/02 05:12:02;;;;;;;19.15;15.83;;;;;;;17.94;90.55;99577.12;4144101;84;21034;-84
2022/07/02 05:18:10;;;;;;;18.98;17.02;;;;;;;17.97;90.81;99581.03;4104199;86;21039;-85
2022/07/02 05:24:11;;;;;;;20.02;16.77;;;;;;;18.00;91.03;99584.38;4097836;86;21633;-84
2022/07/02 05:30:12;;;;;;;20.70;17.40;;;;;;;17.95;91.07;99589.75;4099962;86;21022;-85
2022/07/02 05:36:14;;;;;;;24.07;18.40;;;;;;;17.85;91.30;99598.97;4108745;86;21046;-83
2022/07/02 05:42:15;;;;;;;23.92;19.32;;;;;;;17.79;91.46;99602.58;4103872;86;21500;-85
2022/07/02 05:48:16;;;;;;;25.62;18.87;;;;;;;17.77;91.78;99614.66;4105944;86;21591;-86
2022/07/02 05:54:17;;;;;;;23.45;20.50;;;;;;;17.79;91.98;99627.50;4109439;84;21453;-84
2022/07/02 06:00:19;;;;;;;24.02;18.70;;;;;;;17.69;91.94;99640.23;4104007;86;21508;-85
2022/07/02 06:12:40;;;;;;;26.12;19.80;;;;;;;17.74;92.46;99638.42;4102608;86;21014;-85
2022/07/02 06:18:41;;;;;;;24.67;20.08;;;;;;;17.74;92.61;99648.70;4101708;86;21024;-86
2022/07/02 06:24:42;;;;;;;26.75;21.00;;;;;;;17.69;92.52;99653.27;4105912;86;21008;-85
2022/07/02 06:30:44;;;;;;;24.47;20.27;;;;;;;17.66;92.84;99674.27;4104136;86;21036;-85
2022/07/02 06:36:46;;;;;;;29.65;22.58;;;;;;;17.62;92.84;99683.80;4124822;86;20984;-85
2022/07/02 06:42:47;;;;;;;26.05;21.02;;;;;;;17.62;93.00;99693.48;4104953;86;21026;-84
2022/07/02 06:48:48;;;;;;;25.48;20.68;;;;;;;17.72;93.15;99706.45;4107725;86;21091;-85
2022/07/02 06:54:50;;;;;;;24.72;21.12;;;;;;;17.76;93.10;99707.23;4102331;86;21077;-86
2022/07/02 07:00:51;;;;;;;25.23;19.02;;;;;;;17.78;93.15;99726.98;4107149;86;21566;-86
2022/07/02 07:06:56;;;;;;;22.00;17.85;;;;;;;17.75;93.07;99725.02;4102999;86;21490;-85
2022/07/02 07:12:57;;;;;;;22.95;18.40;;;;;;;17.74;93.12;99729.80;4136050;83;21047;-86
2022/07/02 07:25:04;;;;;;;23.32;18.67;;;;;;;17.74;93.32;99745.02;4194463;83;21680;-84
2022/07/02 07:31:05;;;;;;;24.23;16.95;;;;;;;17.76;93.47;99743.23;4224190;83;21016;-85
2022/07/02 07:37:06;;;;;;;20.72;16.90;;;;;;;17.71;93.57;99745.04;4196876;83;20989;-83
2022/07/02 07:43:07;;;;;;;22.48;17.40;;;;;;;17.72;93.77;99753.53;4203001;83;21027;-85
2022/07/02 07:49:10;;;;;;;20.40;17.62;;;;;;;17.74;93.98;99758.08;4219279;83;21046;-86
2022/07/02 07:55:11;;;;;;;18.00;15.63;;;;;;;17.75;93.77;99768.74;4202448;83;21112;-84
2022/07/02 08:01:13;;;;;;;18.87;15.50;;;;;;;17.75;93.78;99766.56;4199912;83;20997;-84
2022/07/02 08:07:14;;;;;;;18.55;16.15;;;;;;;17.78;94.08;99779.01;4207942;83;21015;-84
2022/07/02 08:13:16;;;;;;;18.77;14.73;;;;;;;17.82;93.87;99784.53;4199385;83;21040;-83
2022/07/02 08:19:17;;;;;;;15.58;13.83;;;;;;;17.83;93.96;99786.90;4194561;83;21072;-85
2022/07/02 08:25:18;;;;;;;14.75;13.18;;;;;;;17.87;94.06;99793.20;4208708;83;21026;-84
2022/07/02 08:31:20;;;;;;;19.45;14.73;;;;;;;17.93;94.14;99792.95;4195669;83;21548;-83
2022/07/02 08:37:22;;;;;;;19.40;16.65;;;;;;;17.94;94.02;99798.70;4206826;83;21060;-83
2022/07/02 08:43:28;;;;;;;22.40;17.77;;;;;;;17.95;94.01;99786.42;4172669;83;21202;-84
2022/07/02 08:49:32;;;;;;;17.93;15.83;;;;;;;18.05;94.09;99785.58;4202498;83;21024;-84
2022/07/02 08:55:35;;;;;;;16.05;14.35;;;;;;;18.04;93.76;99790.91;4197811;83;21075;-86
2022/07/02 09:01:37;;;;;;;14.90;13.45;;;;;;;18.02;93.42;99790.55;4035541;87;21126;-86
2022/07/02 09:07:42;;;;;;;15.43;13.58;;;;;;;18.10;93.33;99802.37;4211845;83;21032;-84
2022/07/02 09:13:44;;;;;;;14.53;12.68;;;;;;;18.11;92.96;99808.09;4183726;83;21021;-84
2022/07/02 09:19:46;;;;;;;13.30;11.97;;;;;;;18.06;92.67;99810.70;4156443;84;21596;-86
2022/07/02 09:25:52;;;;;;;12.15;10.95;;;;;;;18.04;92.83;99811.69;4163530;84;21518;-84
2022/07/02 09:39:13;;;;;;;13.30;11.65;;;;;;;18.05;92.69;99809.72;4178950;84;21015;-86
2022/07/02 09:45:49;;;;;;;17.92;13.90;;;;;;;18.03;92.61;99812.89;4161029;85;21023;-85
2022/07/02 09:52:32;;;;;;;22.02;15.72;;;;;;;18.09;92.70;99816.02;3914785;88;21024;-85
2022/07/02 09:58:54;;;;;;;16.80;13.35;;;;;;;18.14;92.25;99822.52;3962692;88;21083;-85
2022/07/02 10:39:58;;;;;;;;;;;;;;;;;;;;;
2022/07/02 10:46:50;;;;;;;19.35;15.23;;;;;;;18.25;90.98;99845.41;4192422;84;21037;-86
2022/07/02 10:53:14;;;;;;;18.00;16.17;;;;;;;18.30;91.15;99854.10;4191778;84;21620;-85
2022/07/02 11:06:41;;;;;;;17.92;16.23;;;;;;;18.39;90.58;99867.52;4210573;84;21043;-85
2022/07/02 11:42:18;;;;;;;14.10;12.68;;;;;;;18.69;89.49;99864.34;4045693;85;21206;-86
2022/07/02 12:52:09;;;;;;;9.40;8.40;;;;;;;19.04;88.20;99862.46;3916089;89;21079;-86
2022/07/02 12:58:57;;;;;;;9.18;8.25;;;;;;;19.07;88.02;99860.25;3933816;90;21071;-85
2022/07/02 13:19:17;;;;;;;12.20;11.00;;;;;;;19.59;87.35;99836.73;4058442;86;21184;-86
2022/07/02 13:39:54;;;;;;;;;;;;;;;;;;;;;
2022/07/02 14:27:54;;;;;;;8.73;7.67;;;;;;;20.15;83.74;99816.56;4134365;84;20987;-86
2022/07/02 14:48:30;;;;;;;10.32;7.28;;;;;;;20.07;83.61;99806.12;4078409;84;21033;-85
2022/07/02 17:29:22;;;;;;;7.87;6.97;;;;;;;19.76;80.81;99753.15;4165187;85;20984;-86
2022/07/02 17:43:07;;;;;;;8.63;7.62;;;;;;;19.69;80.96;99741.36;4371870;78;21065;-86
2022/07/02 17:49:09;;;;;;;7.70;6.60;;;;;;;19.68;80.86;99748.13;4428622;78;20989;-85
2022/07/02 17:55:10;;;;;;;11.00;7.70;;;;;;;19.69;80.91;99745.52;4414094;78;21416;-86
2022/07/02 18:01:11;;;;;;;10.10;7.35;;;;;;;19.63;81.00;99736.09;4422383;78;21583;-86
2022/07/02 18:07:13;;;;;;;8.30;7.50;;;;;;;19.63;80.98;99736.88;4424735;78;21028;-86
2022/07/02 18:13:14;;;;;;;10.30;8.00;;;;;;;19.54;81.31;99740.78;4405584;78;20965;-86
2022/07/02 18:19:15;;;;;;;9.85;8.88;;;;;;;19.49;81.29;99737.08;4305179;78;9999590;-86
2022/07/02 18:25:17;;;;;;;9.98;8.03;;;;;;;19.51;81.25;99731.10;4422666;79;21037;-86
2022/07/02 18:31:18;;;;;;;9.53;7.37;;;;;;;19.48;81.41;99738.26;4413460;78;21106;-85
2022/07/02 18:44:49;;;;;;;8.95;8.10;;;;;;;19.40;81.89;99740.97;4415002;79;21418;-85
2022/07/02 18:51:15;;;;;;;10.90;9.40;;;;;;;19.29;81.96;99747.84;4323480;81;20986;-86
2022/07/02 18:57:17;;;;;;;11.53;9.85;;;;;;;19.21;82.33;99731.05;4350724;81;21154;-85
2022/07/02 19:03:19;;;;;;;14.25;11.45;;;;;;;19.15;82.41;99736.88;4416111;79;21303;-86
2022/07/02 19:09:20;;;;;;;12.20;10.75;;;;;;;19.05;82.85;99736.38;4414619;79;21022;-86
2022/07/02 19:15:22;;;;;;;13.45;10.15;;;;;;;18.94;83.54;99741.27;4299514;79;9999519;-85
2022/07/02 19:21:24;;;;;;;11.48;10.25;;;;;;;18.81;83.83;99741.63;4421068;79;21023;-85
2022/07/02 19:33:45;;;;;;;18.02;12.70;;;;;;;18.57;84.55;99737.27;4416616;79;21033;-85
2022/07/02 19:39:46;;;;;;;15.65;13.10;;;;;;;18.45;85.01;99738.38;4421051;79;20949;-85
2022/07/02 19:45:48;;;;;;;17.60;14.50;;;;;;;18.32;85.40;99733.13;4418610;78;21957;-85
2022/07/02 19:51:49;;;;;;;17.37;14.83;;;;;;;18.22;85.55;99734.79;4420937;78;21043;-85
2022/07/02 19:57:51;;;;;;;21.62;17.12;;;;;;;18.05;86.06;99730.76;4422744;78;21445;-85
2022/07/02 20:03:52;;;;;;;44.73;31.40;;;;;;;17.92;86.42;99727.69;4412262;78;21114;-85
2022/07/02 20:09:54;;;;;;;36.25;25.70;;;;;;;17.81;86.88;99728.34;4409261;78;21128;-84
2022/07/02 20:16:20;;;;;;;31.07;23.32;;;;;;;17.62;86.95;99730.23;4433143;78;21055;-85
2022/07/02 20:22:26;;;;;;;24.87;20.93;;;;;;;17.51;87.50;99724.59;4413158;79;21055;-85
2022/07/02 20:28:29;;;;;;;27.67;21.70;;;;;;;17.38;87.89;99720.07;4426961;79;21016;-85
2022/07/02 20:34:50;;;;;;;20.35;18.02;;;;;;;17.27;88.39;99719.91;4415451;78;21010;-85
2022/07/02 20:41:00;;;;;;;21.48;18.65;;;;;;;17.13;88.25;99720.77;4422589;79;21143;-85
2022/07/02 20:47:23;;;;;;;23.18;18.77;;;;;;;17.00;88.91;99709.94;4427935;79;20993;-84
2022/07/02 20:53:24;;;;;;;23.10;18.23;;;;;;;16.84;89.32;99697.95;4426901;78;21603;-83
2022/07/02 20:59:26;;;;;;;21.93;17.45;;;;;;;16.76;89.66;99688.09;4416351;78;21095;-84
2022/07/02 21:06:03;;;;;;;27.37;16.48;;;;;;;16.65;89.95;99688.71;4317524;81;21143;-85
2022/07/02 21:12:06;;;;;;;22.13;15.83;;;;;;;16.53;90.25;99693.87;4286879;81;21066;-85
2022/07/02 21:18:18;;;;;;;19.73;17.10;;;;;;;16.44;90.30;99692.91;4286301;82;21052;-83
2022/07/02 21:24:33;;;;;;;23.38;17.80;;;;;;;16.29;90.53;99693.27;4272728;82;21086;-84
2022/07/02 21:30:42;;;;;;;22.65;18.55;;;;;;;16.20;90.79;99684.59;4394037;79;21509;-84
2022/07/02 21:36:53;;;;;;;21.57;18.17;;;;;;;16.08;90.98;99683.63;4421161;79;21059;-85
2022/07/02 21:42:57;;;;;;;21.25;15.68;;;;;;;15.94;91.37;99684.42;4425087;79;21165;-84
2022/07/02 21:49:02;;;;;;;20.05;16.85;;;;;;;15.86;91.68;99674.55;4413043;79;21078;-85
2022/07/02 21:55:30;;;;;;;20.43;17.23;;;;;;;15.68;91.53;99672.96;4425190;79;20968;-83
2022/07/02 22:01:31;;;;;;;20.97;17.50;;;;;;;15.47;91.61;99677.23;4427080;78;21008;-84
2022/07/02 22:07:33;;;;;;;16.40;14.05;;;;;;;15.41;92.25;99676.05;4427960;79;21000;-83
2022/07/02 22:13:41;;;;;;;17.82;14.83;;;;;;;15.45;92.72;99680.99;4433110;79;21860;-84
2022/07/02 22:19:42;;;;;;;25.97;17.75;;;;;;;15.58;93.11;99691.08;4405592;79;20988;-84
2022/07/02 22:25:53;;;;;;;23.65;18.17;;;;;;;15.44;92.42;99683.53;4419782;79;21512;-84
2022/07/02 22:31:57;;;;;;;19.95;17.92;;;;;;;15.31;92.66;99680.13;4430211;79;21025;-84
2022/07/02 22:38:06;;;;;;;19.48;17.37;;;;;;;15.17;92.74;99672.61;4423667;79;21004;-84
2022/07/02 22:44:09;;;;;;;20.60;17.07;;;;;;;15.08;92.95;99667.25;4426889;79;21103;-83
2022/07/02 22:50:16;;;;;;;23.45;19.73;;;;;;;14.97;93.29;99657.55;4424987;79;20997;-83
2022/07/02 22:56:17;;;;;;;22.75;18.35;;;;;;;14.87;93.42;99658.30;4413546;79;21039;-83
2022/07/02 23:02:18;;;;;;;21.20;17.75;;;;;;;14.84;93.65;99661.04;4424587;79;21035;-83
2022/07/02 23:08:23;;;;;;;22.48;20.12;;;;;;;14.73;93.75;99654.69;4413727;79;21008;-83
2022/07/02 23:14:24;;;;;;;24.37;18.85;;;;;;;14.65;93.95;99648.36;4424021;78;20961;-84
2022/07/02 23:20:34;;;;;;;28.35;21.80;;;;;;;14.58;94.13;99656.57;4415217;79;21587;-83
2022/07/02 23:26:36;;;;;;;19.45;15.38;;;;;;;14.57;93.82;99660.51;4422205;79;21075;-83
2022/07/02 23:32:37;;;;;;;20.27;16.65;;;;;;;14.56;95.02;99654.02;4436000;79;21028;-84
2022/07/02 23:38:38;;;;;;;19.12;16.07;;;;;;;14.64;94.63;99658.39;4410912;78;21510;-83
2022/07/02 23:44:46;;;;;;;23.07;18.25;;;;;;;14.48;94.70;99662.83;4427985;79;21017;-83
2022/07/02 23:50:47;;;;;;;21.33;18.15;;;;;;;14.49;95.34;99653.95;4419571;79;21040;-84
2022/07/02 23:56:52;;;;;;;21.95;19.50;;;;;;;14.56;95.74;99654.81;4427749;79;21084;-83
